createdAt,value
2019-04-26T00:01:47.866Z,15.68
2019-04-26T00:04:19.872Z,15.55
2019-04-26T00:06:51.863Z,14.87
2019-04-26T00:09:27.613Z,15.00
2019-04-26T00:12:18.601Z,14.15
2019-04-26T00:15:00.216Z,14.75
2019-04-26T00:17:36.517Z,14.18
2019-04-26T00:20:10.622Z,15.05
2019-04-26T00:22:43.511Z,14.40
2019-04-26T00:25:16.345Z,13.03
2019-04-26T00:27:48.606Z,14.15
2019-04-26T00:30:21.266Z,14.47
2019-04-26T00:32:53.157Z,14.03
2019-04-26T00:35:25.181Z,14.87
2019-04-26T00:37:56.983Z,13.53
2019-04-26T00:40:28.995Z,14.78
2019-04-26T00:43:03.376Z,16.02
2019-04-26T00:45:38.706Z,16.62
2019-04-26T00:48:14.131Z,16.42
2019-04-26T00:50:48.909Z,15.15
2019-04-26T00:53:23.879Z,15.70
2019-04-26T00:55:57.105Z,15.23
2019-04-26T00:58:33.462Z,16.40
2019-04-26T01:01:04.442Z,15.55
2019-04-26T01:03:36.548Z,16.52
2019-04-26T01:06:10.812Z,15.95
2019-04-26T01:08:42.654Z,14.95
2019-04-26T01:11:15.299Z,15.55
2019-04-26T01:13:48.603Z,14.78
2019-04-26T01:16:20.370Z,15.98
2019-04-26T01:18:54.662Z,16.10
2019-04-26T01:21:32.070Z,16.17
2019-04-26T01:24:07.364Z,17.35
2019-04-26T01:26:43.455Z,16.35
2019-04-26T01:29:19.768Z,16.77
2019-04-26T01:32:00.616Z,17.15
2019-04-26T01:34:33.784Z,16.65
2019-04-26T01:37:06.291Z,15.80
2019-04-26T01:39:41.426Z,14.75
2019-04-26T01:42:32.749Z,15.03
2019-04-26T01:45:21.907Z,15.30
2019-04-26T01:47:58.114Z,15.23
2019-04-26T01:50:34.737Z,14.45
2019-04-26T01:53:08.633Z,15.15
2019-04-26T01:55:40.698Z,15.20
2019-04-26T01:58:12.632Z,15.43
2019-04-26T02:00:58.023Z,15.18
2019-04-26T02:03:30.586Z,14.58
2019-04-26T02:06:02.408Z,15.48
2019-04-26T02:08:34.159Z,16.15
2019-04-26T02:11:05.942Z,15.60
2019-04-26T02:13:37.708Z,16.25
2019-04-26T02:16:09.884Z,16.20
2019-04-26T02:18:42.147Z,14.90
2019-04-26T02:21:21.872Z,16.02
2019-04-26T02:24:14.054Z,15.32
2019-04-26T02:26:48.328Z,15.90
2019-04-26T02:29:28.486Z,15.90
2019-04-26T02:32:06.634Z,16.30
2019-04-26T02:34:39.696Z,16.62
2019-04-26T02:37:15.520Z,15.88
2019-04-26T02:39:47.361Z,15.60
2019-04-26T02:42:39.065Z,15.10
2019-04-26T02:46:01.326Z,16.27
2019-04-26T02:49:00.339Z,15.85
2019-04-26T02:51:39.772Z,16.48
2019-04-26T02:54:45.212Z,16.10
2019-04-26T02:57:47.934Z,15.80
2019-04-26T03:00:21.490Z,16.82
2019-04-26T03:03:07.923Z,16.67
2019-04-26T03:05:45.580Z,18.55
2019-04-26T03:08:26.144Z,17.27
2019-04-26T03:11:17.966Z,14.93
2019-04-26T03:14:06.441Z,15.25
2019-04-26T03:17:10.542Z,15.28
2019-04-26T03:20:02.117Z,15.32
2019-04-26T03:23:45.463Z,16.57
2019-04-26T03:26:38.965Z,17.55
2019-04-26T03:29:41.971Z,15.65
2019-04-26T03:32:48.290Z,14.98
2019-04-26T03:35:29.847Z,16.20
2019-04-26T03:38:34.486Z,17.05
2019-04-26T03:41:29.885Z,16.25
2019-04-26T03:44:26.167Z,15.95
2019-04-26T03:47:03.950Z,15.88
2019-04-26T03:50:22.598Z,15.43
2019-04-26T03:53:38.289Z,17.40
2019-04-26T03:57:16.366Z,17.80
2019-04-26T04:00:33.289Z,18.85
2019-04-26T04:03:48.688Z,16.67
2019-04-26T04:06:28.777Z,16.77
2019-04-26T04:09:13.580Z,14.45
2019-04-26T04:12:14.388Z,16.07
2019-04-26T04:15:00.849Z,15.77
2019-04-26T04:18:02.395Z,16.60
2019-04-26T04:21:22.463Z,15.70
2019-04-26T04:24:15.832Z,14.83
2019-04-26T04:27:39.310Z,17.33
2019-04-26T04:31:05.948Z,17.50
2019-04-26T04:34:28.251Z,15.27
2019-04-26T04:37:04.992Z,17.10
2019-04-26T04:40:08.932Z,16.77
2019-04-26T04:43:06.390Z,16.48
2019-04-26T04:46:12.872Z,17.02
2019-04-26T04:49:36.393Z,17.00
2019-04-26T04:52:39.164Z,17.85
2019-04-26T04:55:24.305Z,16.73
2019-04-26T04:58:12.062Z,16.55
2019-04-26T05:01:46.265Z,15.53
2019-04-26T05:05:22.090Z,16.48
2019-04-26T05:08:15.349Z,16.50
2019-04-26T05:11:10.200Z,17.70
2019-04-26T05:14:02.999Z,14.58
2019-04-26T05:17:19.661Z,14.63
2019-04-26T05:20:31.718Z,15.25
2019-04-26T05:23:57.186Z,15.85
2019-04-26T05:27:32.914Z,15.13
2019-04-26T05:31:08.183Z,15.30
2019-04-26T05:34:25.613Z,14.73
2019-04-26T05:37:47.794Z,16.67
2019-04-26T05:41:01.601Z,15.38
2019-04-26T05:44:18.822Z,14.28
2019-04-26T05:48:10.370Z,15.08
2019-04-26T05:51:40.897Z,15.93
2019-04-26T05:55:12.971Z,15.32
2019-04-26T05:58:38.488Z,15.10
2019-04-26T06:01:39.306Z,15.05
2019-04-26T06:04:48.902Z,15.45
2019-04-26T06:08:11.658Z,15.38
2019-04-26T06:11:02.691Z,14.38
2019-04-26T06:14:58.904Z,13.60
2019-04-26T06:18:31.654Z,14.70
2019-04-26T06:21:14.970Z,13.85
2019-04-26T06:24:17.440Z,13.53
2019-04-26T06:27:19.133Z,14.83
2019-04-26T06:30:13.170Z,15.53
2019-04-26T06:33:17.502Z,13.35
2019-04-26T06:35:54.615Z,14.30
2019-04-26T06:39:36.913Z,14.33
2019-04-26T06:42:37.858Z,13.78
2019-04-26T06:46:04.864Z,11.25
2019-04-26T06:49:13.601Z,13.08
2019-04-26T06:51:53.103Z,13.62
2019-04-26T06:54:59.761Z,11.22
2019-04-26T06:58:20.177Z,14.07
2019-04-26T07:01:27.844Z,12.93
2019-04-26T07:04:19.408Z,11.50
2019-04-26T07:07:24.783Z,13.08
2019-04-26T07:10:40.058Z,11.88
2019-04-26T07:13:57.057Z,10.95
2019-04-26T07:16:51.246Z,12.03
2019-04-26T07:20:45.039Z,12.75
2019-04-26T07:24:39.612Z,11.12
2019-04-26T07:28:03.711Z,11.73
2019-04-26T07:30:57.205Z,11.25
2019-04-26T07:34:00.773Z,9.93
2019-04-26T07:37:26.816Z,9.80
2019-04-26T07:40:52.579Z,11.28
2019-04-26T07:44:35.636Z,11.15
2019-04-26T07:48:11.737Z,9.43
2019-04-26T07:51:51.797Z,11.83
2019-04-26T07:55:28.279Z,11.20
2019-04-26T07:59:31.292Z,10.28
2019-04-26T08:02:37.313Z,12.47
2019-04-26T08:05:24.381Z,10.95
2019-04-26T08:08:02.040Z,10.63
2019-04-26T08:10:40.422Z,10.95
2019-04-26T08:13:17.562Z,10.70
2019-04-26T08:16:15.776Z,9.93
2019-04-26T08:18:58.846Z,9.30
2019-04-26T08:21:37.074Z,9.38
2019-04-26T08:24:21.516Z,10.40
2019-04-26T08:27:23.545Z,9.20
2019-04-26T08:30:03.412Z,9.40
2019-04-26T08:32:46.732Z,10.48
2019-04-26T08:35:28.027Z,8.73
2019-04-26T08:38:13.525Z,10.95
2019-04-26T08:40:43.345Z,9.93
2019-04-26T08:43:34.971Z,9.55
2019-04-26T08:46:36.239Z,8.85
2019-04-26T08:49:15.343Z,9.53
2019-04-26T08:51:52.235Z,8.33
2019-04-26T08:54:32.543Z,9.03
2019-04-26T08:57:09.593Z,8.15
2019-04-26T08:59:48.580Z,8.08
2019-04-26T09:03:11.009Z,8.88
2019-04-26T09:05:56.383Z,8.88
2019-04-26T09:08:35.007Z,9.00
2019-04-26T09:11:23.755Z,7.50
2019-04-26T09:13:50.075Z,7.97
2019-04-26T09:16:23.107Z,8.05
2019-04-26T09:18:59.430Z,8.13
2019-04-26T09:21:47.410Z,8.43
2019-04-26T09:24:46.922Z,8.28
2019-04-26T09:27:40.406Z,9.53
2019-04-26T09:30:34.783Z,8.88
2019-04-26T09:33:31.651Z,8.55
2019-04-26T09:36:04.179Z,7.15
2019-04-26T09:38:36.022Z,8.18
2019-04-26T09:41:08.071Z,8.33
2019-04-26T09:43:54.918Z,7.62
2019-04-26T09:46:44.498Z,8.18
2019-04-26T09:49:42.315Z,7.33
2019-04-26T09:52:24.403Z,7.40
2019-04-26T09:54:56.453Z,7.50
2019-04-26T09:57:28.277Z,7.70
2019-04-26T10:00:00.317Z,8.00
2019-04-26T10:02:35.357Z,7.72
2019-04-26T10:05:11.556Z,7.47
2019-04-26T10:07:41.433Z,8.25
2019-04-26T10:10:22.642Z,8.30
2019-04-26T10:12:55.329Z,8.03
2019-04-26T10:15:47.430Z,7.10
2019-04-26T10:18:20.402Z,7.53
2019-04-26T10:20:53.065Z,7.97
2019-04-26T10:23:25.093Z,7.45
2019-04-26T10:25:57.209Z,7.50
2019-04-26T10:28:29.014Z,7.10
2019-04-26T10:31:00.981Z,7.37
2019-04-26T10:33:36.492Z,6.55
2019-04-26T10:36:06.421Z,7.75
2019-04-26T10:38:39.734Z,5.97
2019-04-26T10:41:11.712Z,5.80
2019-04-26T10:43:43.970Z,6.85
2019-04-26T10:46:16.071Z,6.20
2019-04-26T10:48:49.718Z,5.90
2019-04-26T10:51:30.186Z,4.50
2019-04-26T10:54:08.951Z,5.22
2019-04-26T10:56:54.850Z,6.20
2019-04-26T10:59:31.823Z,5.67
2019-04-26T11:02:05.356Z,6.28
2019-04-26T11:04:40.973Z,4.60
2019-04-26T11:07:10.701Z,4.95
2019-04-26T11:09:42.743Z,5.60
2019-04-26T11:12:16.524Z,5.12
2019-04-26T11:14:48.312Z,4.97
2019-04-26T11:17:20.330Z,5.08
2019-04-26T11:19:53.452Z,4.83
2019-04-26T11:22:29.333Z,5.47
2019-04-26T11:24:59.017Z,5.33
2019-04-26T11:27:30.828Z,5.28
2019-04-26T11:30:11.649Z,4.45
2019-04-26T11:32:38.201Z,5.15
2019-04-26T11:35:11.113Z,5.42
2019-04-26T11:37:46.211Z,6.05
2019-04-26T11:40:17.665Z,5.30
2019-04-26T11:42:49.421Z,4.80
2019-04-26T11:45:21.268Z,5.80
2019-04-26T11:47:56.145Z,5.25
2019-04-26T11:50:26.694Z,4.97
2019-04-26T11:52:58.435Z,5.60
2019-04-26T11:55:31.502Z,5.22
2019-04-26T11:58:03.518Z,5.55
2019-04-26T12:00:43.340Z,5.33
2019-04-26T12:03:15.221Z,5.30
2019-04-26T12:06:04.635Z,5.00
2019-04-26T12:08:48.587Z,6.45
2019-04-26T12:11:26.157Z,6.37
2019-04-26T12:13:55.349Z,6.15
2019-04-26T12:16:27.623Z,5.62
2019-04-26T12:18:59.552Z,4.85
2019-04-26T12:21:34.113Z,4.80
2019-04-26T12:24:04.991Z,4.80
2019-04-26T12:26:42.998Z,4.72
2019-04-26T12:29:14.546Z,5.08
2019-04-26T12:31:44.064Z,4.70
2019-04-26T12:34:17.883Z,5.50
2019-04-26T12:36:49.320Z,5.20
2019-04-26T12:39:21.208Z,6.53
2019-04-26T12:41:53.270Z,5.80
2019-04-26T12:44:27.277Z,7.75
2019-04-26T12:47:13.878Z,7.87
2019-04-26T12:49:45.694Z,8.23
2019-04-26T12:52:21.628Z,9.25
2019-04-26T12:54:51.166Z,9.30
2019-04-26T12:57:23.215Z,9.13
2019-04-26T12:59:57.558Z,8.70
2019-04-26T13:02:28.708Z,6.17
2019-04-26T13:05:00.646Z,7.60
2019-04-26T13:07:32.685Z,5.65
2019-04-26T13:10:20.168Z,6.37
2019-04-26T13:13:05.632Z,8.00
2019-04-26T13:16:21.500Z,6.72
2019-04-26T13:18:51.606Z,5.55
2019-04-26T13:21:23.441Z,5.50
2019-04-26T13:23:55.212Z,5.17
2019-04-26T13:26:30.307Z,5.80
2019-04-26T13:29:00.516Z,5.80
2019-04-26T13:31:32.310Z,5.42
2019-04-26T13:34:05.338Z,5.00
2019-04-26T13:36:37.150Z,5.37
2019-04-26T13:39:17.492Z,5.50
2019-04-26T13:41:47.089Z,5.05
2019-04-26T13:44:39.437Z,5.08
2019-04-26T13:47:30.693Z,5.60
2019-04-26T13:50:08.551Z,5.50
2019-04-26T13:52:40.367Z,5.35
2019-04-26T13:55:12.456Z,6.17
2019-04-26T13:57:46.002Z,4.58
2019-04-26T14:00:24.640Z,5.12
2019-04-26T14:02:56.484Z,4.65
2019-04-26T14:05:28.701Z,4.37
2019-04-26T14:08:00.485Z,4.75
2019-04-26T14:10:32.300Z,4.90
2019-04-26T14:13:04.117Z,4.67
2019-04-26T14:15:39.547Z,4.78
2019-04-26T14:18:10.631Z,5.33
2019-04-26T14:20:42.539Z,4.65
2019-04-26T14:23:37.934Z,5.15
2019-04-26T14:26:14.889Z,5.37
2019-04-26T14:28:46.652Z,5.42
2019-04-26T14:31:18.518Z,5.95
2019-04-26T14:33:50.490Z,5.70
2019-04-26T14:36:22.586Z,5.97
2019-04-26T14:39:05.632Z,4.95
2019-04-26T14:41:29.432Z,5.30
2019-04-26T14:44:14.470Z,5.78
2019-04-26T14:46:47.992Z,5.12
2019-04-26T14:49:08.534Z,5.50
2019-04-26T14:51:40.694Z,5.47
2019-04-26T14:54:12.881Z,5.33
2019-04-26T14:56:52.054Z,6.22
2019-04-26T14:59:39.378Z,5.83
2019-04-26T15:02:29.998Z,5.40
2019-04-26T15:05:30.258Z,5.78
2019-04-26T15:08:08.867Z,5.15
2019-04-26T15:10:45.627Z,5.75
2019-04-26T15:13:17.211Z,5.75
2019-04-26T15:15:45.937Z,5.28
2019-04-26T15:18:16.927Z,5.58
2019-04-26T15:20:48.763Z,5.70
2019-04-26T15:23:23.874Z,5.45
2019-04-26T15:25:54.120Z,6.28
2019-04-26T15:28:25.981Z,5.53
2019-04-26T15:30:58.406Z,6.22
2019-04-26T15:33:32.366Z,4.70
2019-04-26T15:36:06.364Z,5.15
2019-04-26T15:38:41.601Z,5.70
2019-04-26T15:41:33.190Z,5.30
2019-04-26T15:44:28.331Z,5.75
2019-04-26T15:47:23.584Z,5.75
2019-04-26T15:50:05.618Z,5.92
2019-04-26T15:52:35.848Z,5.83
2019-04-26T15:55:07.729Z,5.72
2019-04-26T15:57:39.611Z,5.17
2019-04-26T16:00:12.558Z,5.33
2019-04-26T16:02:44.561Z,5.28
2019-04-26T16:05:16.854Z,5.25
2019-04-26T16:07:49.060Z,4.67
2019-04-26T16:10:25.507Z,5.33
2019-04-26T16:12:56.213Z,5.28
2019-04-26T16:15:28.365Z,6.30
2019-04-26T16:18:00.287Z,5.22
2019-04-26T16:20:37.577Z,5.65
2019-04-26T16:23:07.457Z,6.17
2019-04-26T16:25:39.668Z,7.95
2019-04-26T16:28:30.775Z,6.62
2019-04-26T16:31:14.784Z,5.53
2019-04-26T16:33:47.678Z,5.05
2019-04-26T16:36:19.938Z,4.85
2019-04-26T16:38:54.746Z,4.87
2019-04-26T16:41:27.181Z,4.67
2019-04-26T16:43:58.991Z,4.65
2019-04-26T16:46:33.135Z,4.78
2019-04-26T16:49:05.881Z,4.95
2019-04-26T16:51:38.207Z,5.85
2019-04-26T16:54:11.105Z,6.08
2019-04-26T16:56:43.956Z,5.72
2019-04-26T16:59:22.554Z,5.65
2019-04-26T17:01:49.498Z,5.28
2019-04-26T17:04:28.657Z,5.97
2019-04-26T17:06:55.348Z,5.35
2019-04-26T17:09:52.320Z,5.80
2019-04-26T17:12:02.949Z,5.30
2019-04-26T17:14:34.814Z,5.87
2019-04-26T17:17:07.447Z,6.37
2019-04-26T17:19:40.205Z,6.10
2019-04-26T17:22:45.270Z,5.05
2019-04-26T17:25:29.053Z,6.10
2019-04-26T17:28:00.875Z,6.53
2019-04-26T17:30:40.776Z,6.35
2019-04-26T17:33:06.308Z,6.60
2019-04-26T17:35:40.908Z,7.55
2019-04-26T17:38:11.745Z,7.45
2019-04-26T17:40:46.150Z,7.60
2019-04-26T17:43:18.286Z,8.13
2019-04-26T17:45:51.533Z,8.68
2019-04-26T17:48:23.841Z,8.08
2019-04-26T17:50:55.587Z,9.00
2019-04-26T17:53:31.126Z,8.35
2019-04-26T17:56:01.223Z,10.58
2019-04-26T17:58:35.777Z,9.23
2019-04-26T18:01:06.733Z,8.45
2019-04-26T18:03:38.658Z,10.05
2019-04-26T18:06:14.002Z,11.65
2019-04-26T18:08:51.475Z,10.95
2019-04-26T18:11:19.918Z,13.43
2019-04-26T18:13:54.675Z,13.03
2019-04-26T18:16:29.423Z,13.08
2019-04-26T18:19:18.824Z,13.38
2019-04-26T18:22:00.442Z,10.58
2019-04-26T18:24:35.032Z,10.53
2019-04-26T18:27:06.257Z,11.30
2019-04-26T18:29:38.038Z,13.13
2019-04-26T18:32:09.980Z,15.80
2019-04-26T18:34:43.017Z,17.50
2019-04-26T18:37:15.170Z,19.85
2019-04-26T18:39:47.071Z,19.17
2019-04-26T18:42:20.491Z,17.25
2019-04-26T18:44:54.275Z,17.92
2019-04-26T18:47:30.747Z,17.87
2019-04-26T18:50:02.640Z,14.85
2019-04-26T18:52:37.373Z,14.23
2019-04-26T18:55:16.383Z,14.25
2019-04-26T18:57:54.698Z,14.87
2019-04-26T19:00:30.762Z,14.43
2019-04-26T19:03:02.547Z,15.35
2019-04-26T19:05:34.414Z,18.02
2019-04-26T19:08:07.563Z,19.10
2019-04-26T19:10:43.529Z,21.55
2019-04-26T19:13:36.568Z,21.68
2019-04-26T19:16:19.102Z,30.10
2019-04-26T19:18:55.808Z,32.15
2019-04-26T19:21:54.441Z,34.15
2019-04-26T19:24:26.015Z,28.77
2019-04-26T19:26:57.801Z,31.97
2019-04-26T19:29:33.843Z,29.27
2019-04-26T19:32:04.500Z,26.93
2019-04-26T19:34:38.137Z,26.95
2019-04-26T19:37:09.984Z,19.57
2019-04-26T19:39:42.749Z,20.02
2019-04-26T19:42:16.657Z,17.10
2019-04-26T19:44:49.378Z,16.73
2019-04-26T19:47:39.542Z,19.42
2019-04-26T19:50:31.324Z,18.92
2019-04-26T19:53:24.718Z,22.02
2019-04-26T19:56:06.012Z,23.00
2019-04-26T19:58:38.129Z,21.77
2019-04-26T20:01:10.046Z,21.87
2019-04-26T20:03:43.182Z,21.20
2019-04-26T20:06:18.852Z,20.48
2019-04-26T20:08:49.645Z,21.95
2019-04-26T20:11:22.657Z,20.17
2019-04-26T20:13:55.371Z,17.98
2019-04-26T20:16:27.496Z,17.92
2019-04-26T20:18:59.276Z,19.12
2019-04-26T20:21:32.654Z,18.85
2019-04-26T20:24:04.802Z,21.23
2019-04-26T20:26:37.374Z,20.32
2019-04-26T20:29:11.707Z,20.43
2019-04-26T20:31:55.565Z,21.82
2019-04-26T20:34:27.354Z,22.27
2019-04-26T20:36:59.240Z,20.40
2019-04-26T20:39:31.674Z,20.77
2019-04-26T20:42:04.621Z,18.70
2019-04-26T20:44:50.367Z,18.52
2019-04-26T20:47:14.423Z,17.60
2019-04-26T20:49:50.002Z,16.80
2019-04-26T20:52:23.180Z,16.30
2019-04-26T20:54:54.080Z,15.65
2019-04-26T20:57:30.465Z,15.10
2019-04-26T21:00:03.217Z,15.25
2019-04-26T21:02:32.497Z,17.00
2019-04-26T21:05:11.180Z,16.25
2019-04-26T21:07:41.703Z,17.40
2019-04-26T21:10:20.876Z,15.18
2019-04-26T21:12:52.123Z,13.75
2019-04-26T21:15:24.038Z,14.80
2019-04-26T21:17:56.779Z,14.47
2019-04-26T21:20:32.757Z,14.80
2019-04-26T21:23:03.695Z,13.45
2019-04-26T21:25:46.773Z,13.72
2019-04-26T21:28:25.769Z,12.35
2019-04-26T21:31:15.730Z,13.28
2019-04-26T21:33:53.547Z,11.83
2019-04-26T21:36:43.828Z,12.35
2019-04-26T21:39:26.181Z,11.20
2019-04-26T21:41:58.263Z,11.97
2019-04-26T21:44:30.253Z,12.00
2019-04-26T21:47:03.358Z,11.15
2019-04-26T21:49:38.010Z,12.10
2019-04-26T21:52:09.031Z,12.05
2019-04-26T21:54:40.852Z,11.08
2019-04-26T21:57:12.600Z,12.03
2019-04-26T21:59:44.429Z,11.28
2019-04-26T22:02:17.307Z,11.55
2019-04-26T22:04:50.273Z,10.98
2019-04-26T22:07:22.112Z,11.75
2019-04-26T22:10:19.105Z,11.43
2019-04-26T22:12:50.965Z,11.73
2019-04-26T22:15:40.732Z,12.23
2019-04-26T22:18:21.445Z,12.47
2019-04-26T22:20:57.337Z,13.83
2019-04-26T22:23:35.589Z,13.15
2019-04-26T22:26:08.657Z,12.40
2019-04-26T22:28:40.468Z,13.10
2019-04-26T22:31:13.442Z,12.20
2019-04-26T22:33:45.451Z,11.45
2019-04-26T22:36:17.208Z,12.05
2019-04-26T22:38:48.995Z,11.00
2019-04-26T22:41:24.467Z,12.15
2019-04-26T22:44:05.668Z,12.53
2019-04-26T22:47:05.729Z,12.30
2019-04-26T22:49:41.773Z,13.28
2019-04-26T22:52:15.919Z,12.98
2019-04-26T22:54:46.656Z,12.28
2019-04-26T22:57:19.788Z,12.15
2019-04-26T22:59:53.368Z,11.48
2019-04-26T23:02:27.694Z,11.57
2019-04-26T23:05:01.881Z,11.12
2019-04-26T23:07:33.955Z,11.70
2019-04-26T23:10:08.659Z,11.80
2019-04-26T23:13:07.423Z,11.20
2019-04-26T23:16:00.764Z,11.43
2019-04-26T23:18:53.761Z,11.12
2019-04-26T23:21:38.605Z,11.73
2019-04-26T23:24:11.520Z,11.33
2019-04-26T23:26:45.282Z,11.88
2019-04-26T23:29:18.925Z,10.95
2019-04-26T23:31:50.967Z,11.97
2019-04-26T23:34:22.854Z,11.50
2019-04-26T23:36:56.233Z,11.40
2019-04-26T23:39:28.091Z,11.40
2019-04-26T23:41:59.870Z,11.00
2019-04-26T23:44:33.103Z,10.78
2019-04-26T23:47:18.523Z,11.08
2019-04-26T23:49:39.977Z,10.45
2019-04-26T23:52:14.529Z,11.85
2019-04-26T23:54:46.592Z,11.08
2019-04-26T23:57:18.357Z,11.20
2019-04-26T23:59:51.208Z,11.05
